首页
METAR-TAF:

METAR-TAF

机场 :

安東尼奧·汪帕特國際機場

阿加尼亚, 關島, 美国

纬度: 13-29N, 经度: 144-48E, 海拔: 91米

当前天气观测

该预报发布于9分钟前的17:54 UTC
风速5节,风向
温度 28°C
湿度 84%
气压 1012 hPa
能見度: 12.9公里
天空无云

METAR: PGUM 231754Z 09005KT 8SM CLR 28/25 A2988 RMK AO2 SLP109 T02780250 10289 20272 55008

时间: 04:03 (18:03 UTC)

预报

该预报发布于36分钟前的17:27 UTC
预报有效从23日的 18点(UTC)到 24日的 24点(UTC)
风速8节,风向
能見度: 10公里
少量云层高于2500英尺
少量云层高于6000英尺
从 24日的 0100点(UTC)
风速12节,风向
能見度: 10公里
少量云层高于2000英尺
散云层高于5000英尺
从 24日的 0800点(UTC)
风速9节,风向
能見度: 10公里
少量云层高于2000英尺
散云层高于5000英尺
附近有阵雨

TAF: PGUM 231727Z 2318/2424 09008KT P6SM FEW025 FEW060 FM240100 09012KT P6SM FEW020 SCT050 FM240800 09009KT P6SM VCSH FEW020 SCT050

超过4000个机场的气象观测和天气预报(METAR&TAF报告)。

可查询的气象台以黄色和红色小点在地图上表示。

将鼠标移到小点上方,可查看气象台名称。

然后点击查看天气观测和预报。

如需切换地图:点击带黑十字的绿色按钮放大地图;点击带横线的绿色按钮缩小地图;或者点击绿色箭头查看邻近地区的地图。


METAR-TAF: